createdAt,value
2023-03-26T00:00:54.227Z,26.63
2023-03-26T00:03:20.946Z,26.95
2023-03-26T00:05:50.688Z,25.38
2023-03-26T00:08:17.727Z,28.80
2023-03-26T00:10:44.389Z,27.88
2023-03-26T00:13:11.413Z,23.40
2023-03-26T00:15:38.393Z,30.58
2023-03-26T00:18:05.809Z,22.55
2023-03-26T00:20:35.104Z,31.88
2023-03-26T00:23:01.680Z,26.20
2023-03-26T00:25:28.534Z,29.90
2023-03-26T00:27:55.106Z,26.35
2023-03-26T00:30:21.653Z,31.30
2023-03-26T00:32:53.664Z,31.90
2023-03-26T00:35:20.908Z,26.83
2023-03-26T00:37:47.729Z,27.23
2023-03-26T00:40:14.308Z,28.52
2023-03-26T00:42:42.371Z,28.27
2023-03-26T00:45:09.151Z,28.75
2023-03-26T00:47:36.124Z,25.60
2023-03-26T00:50:04.314Z,24.25
2023-03-26T00:52:31.754Z,22.02
2023-03-26T00:54:58.393Z,23.85
2023-03-26T00:57:35.975Z,26.42
2023-03-26T01:00:10.137Z,26.17
2023-03-26T01:02:36.726Z,28.42
2023-03-26T01:05:35.093Z,22.00
2023-03-26T01:08:15.928Z,19.92
2023-03-26T01:10:44.473Z,27.42
2023-03-26T01:13:11.199Z,31.90
2023-03-26T01:15:39.065Z,23.15
2023-03-26T01:18:09.765Z,25.20
2023-03-26T01:20:46.604Z,29.15
2023-03-26T01:23:21.921Z,27.73
2023-03-26T01:25:56.985Z,29.75
2023-03-26T01:28:26.179Z,28.35
2023-03-26T01:31:14.731Z,25.67
2023-03-26T01:33:50.743Z,29.67
2023-03-26T01:36:32.514Z,26.45
2023-03-26T01:39:25.160Z,26.88
2023-03-26T01:41:57.176Z,25.73
2023-03-26T01:44:38.416Z,33.35
2023-03-26T01:47:06.480Z,20.02
2023-03-26T01:49:33.469Z,24.83
2023-03-26T01:52:00.610Z,27.75
2023-03-26T01:54:30.558Z,21.48
2023-03-26T01:57:23.980Z,30.83
2023-03-26T02:00:12.048Z,26.70
2023-03-26T02:02:50.706Z,23.08
2023-03-26T02:05:33.895Z,23.80
2023-03-26T02:08:16.493Z,19.58
2023-03-26T02:10:47.180Z,26.83
2023-03-26T02:13:13.891Z,28.83
2023-03-26T02:15:41.057Z,28.45
2023-03-26T02:18:10.814Z,22.00
2023-03-26T02:20:37.696Z,31.83
2023-03-26T02:23:04.204Z,27.73
2023-03-26T02:25:30.727Z,27.80
2023-03-26T02:27:57.186Z,21.98
2023-03-26T02:30:26.011Z,21.75
2023-03-26T02:32:54.197Z,26.10
2023-03-26T02:35:22.219Z,28.10
2023-03-26T02:37:50.878Z,20.75
2023-03-26T02:40:22.352Z,28.67
2023-03-26T02:42:49.464Z,23.70
2023-03-26T02:45:16.140Z,23.52
2023-03-26T02:47:43.349Z,24.83
2023-03-26T02:50:12.084Z,24.08
2023-03-26T02:52:38.741Z,21.40
2023-03-26T02:55:05.692Z,18.75
2023-03-26T02:57:32.250Z,26.38
2023-03-26T02:59:59.000Z,28.63
2023-03-26T03:02:25.667Z,25.40
2023-03-26T03:04:52.315Z,23.35
2023-03-26T03:07:20.365Z,21.95
2023-03-26T03:09:46.872Z,26.88
2023-03-26T03:12:13.425Z,23.75
2023-03-26T03:14:40.731Z,24.25
2023-03-26T03:17:07.325Z,22.02
2023-03-26T03:19:33.844Z,28.77
2023-03-26T03:22:00.426Z,25.38
2023-03-26T03:24:27.087Z,25.15
2023-03-26T03:26:56.868Z,22.70
2023-03-26T03:29:23.913Z,28.35
2023-03-26T03:31:50.624Z,21.63
2023-03-26T03:34:17.150Z,27.58
2023-03-26T03:36:48.544Z,21.95
2023-03-26T03:39:15.414Z,24.35
2023-03-26T03:41:41.955Z,19.67
2023-03-26T03:44:08.528Z,26.73
2023-03-26T03:46:35.417Z,23.88
2023-03-26T03:49:03.122Z,21.77
2023-03-26T03:51:29.785Z,23.83
2023-03-26T03:53:56.617Z,27.67
2023-03-26T03:56:24.177Z,23.58
2023-03-26T03:58:51.580Z,25.58
2023-03-26T04:01:18.603Z,21.10
2023-03-26T04:03:46.947Z,21.15
2023-03-26T04:06:13.823Z,19.73
2023-03-26T04:08:40.536Z,23.38
2023-03-26T04:11:07.023Z,27.80
2023-03-26T04:13:33.733Z,21.75
2023-03-26T04:16:00.542Z,21.38
2023-03-26T04:18:27.679Z,24.42
2023-03-26T04:20:55.542Z,16.80
2023-03-26T04:23:23.103Z,16.88
2023-03-26T04:25:54.346Z,23.50
2023-03-26T04:28:42.254Z,18.85
2023-03-26T04:31:13.930Z,22.02
2023-03-26T04:33:40.677Z,19.42
2023-03-26T04:36:09.209Z,21.10
2023-03-26T04:38:44.685Z,26.73
2023-03-26T04:41:13.078Z,21.00
2023-03-26T04:43:46.922Z,18.98
2023-03-26T04:46:14.415Z,17.77
2023-03-26T04:48:41.120Z,23.60
2023-03-26T04:51:10.657Z,18.35
2023-03-26T04:53:37.206Z,18.50
2023-03-26T04:56:07.051Z,21.45
2023-03-26T04:58:33.747Z,20.75
2023-03-26T05:01:10.354Z,23.17
2023-03-26T05:03:39.159Z,19.67
2023-03-26T05:06:05.880Z,24.17
2023-03-26T05:08:32.385Z,20.73
2023-03-26T05:10:58.979Z,31.45
2023-03-26T05:13:25.597Z,21.85
2023-03-26T05:15:52.499Z,23.08
2023-03-26T05:18:19.123Z,22.63
2023-03-26T05:20:46.269Z,24.75
2023-03-26T05:23:12.850Z,24.13
2023-03-26T05:25:39.484Z,20.27
2023-03-26T05:28:06.288Z,24.40
2023-03-26T05:30:32.869Z,22.05
2023-03-26T05:32:59.446Z,31.80
2023-03-26T05:35:25.953Z,24.58
2023-03-26T05:37:52.540Z,25.67
2023-03-26T05:40:19.996Z,21.95
2023-03-26T05:42:47.343Z,28.08
2023-03-26T05:45:16.095Z,26.05
2023-03-26T05:47:42.730Z,21.23
2023-03-26T05:50:10.982Z,21.48
2023-03-26T05:52:37.713Z,21.70
2023-03-26T05:55:04.513Z,22.65
2023-03-26T05:57:31.706Z,21.60
2023-03-26T05:59:58.221Z,31.73
2023-03-26T06:02:24.769Z,19.27
2023-03-26T06:04:51.543Z,21.70
2023-03-26T06:07:19.827Z,27.55
2023-03-26T06:09:46.691Z,27.83
2023-03-26T06:12:14.140Z,30.05
2023-03-26T06:14:42.837Z,26.70
2023-03-26T06:17:10.668Z,24.73
2023-03-26T06:19:37.542Z,22.48
2023-03-26T06:22:04.833Z,27.42
2023-03-26T06:24:31.942Z,31.25
2023-03-26T06:26:58.410Z,20.52
2023-03-26T06:29:25.102Z,18.48
2023-03-26T06:31:51.581Z,23.02
2023-03-26T06:34:18.145Z,16.48
2023-03-26T06:36:44.670Z,22.58
2023-03-26T06:39:11.301Z,20.40
2023-03-26T06:41:37.827Z,24.63
2023-03-26T06:44:04.390Z,19.15
2023-03-26T06:46:31.677Z,19.70
2023-03-26T06:48:58.394Z,22.60
2023-03-26T06:51:24.961Z,17.90
2023-03-26T06:53:51.509Z,25.80
2023-03-26T06:56:18.076Z,24.10
2023-03-26T06:58:44.542Z,23.20
2023-03-26T07:01:11.224Z,17.08
2023-03-26T07:03:37.905Z,20.67
2023-03-26T07:06:04.729Z,19.85
2023-03-26T07:08:31.486Z,19.85
2023-03-26T07:10:58.299Z,18.70
2023-03-26T07:13:24.915Z,19.92
2023-03-26T07:15:51.402Z,21.75
2023-03-26T07:18:18.130Z,17.08
2023-03-26T07:20:46.028Z,22.73
2023-03-26T07:23:15.501Z,22.42
2023-03-26T07:25:42.466Z,22.75
2023-03-26T07:28:30.742Z,16.77
2023-03-26T07:31:11.415Z,30.58
2023-03-26T07:33:47.977Z,20.90
2023-03-26T07:36:24.403Z,19.92
2023-03-26T07:39:09.183Z,20.30
2023-03-26T07:41:49.926Z,18.08
2023-03-26T07:44:35.720Z,25.38
2023-03-26T07:47:15.182Z,23.10
2023-03-26T07:49:43.347Z,21.25
2023-03-26T07:52:11.103Z,18.52
2023-03-26T07:54:38.002Z,21.95
2023-03-26T07:57:40.929Z,21.00
2023-03-26T08:00:27.132Z,19.00
2023-03-26T08:03:19.508Z,21.88
2023-03-26T08:06:22.313Z,20.85
2023-03-26T08:09:20.619Z,21.27
2023-03-26T08:11:58.028Z,23.83
2023-03-26T08:14:53.323Z,22.48
2023-03-26T08:17:33.869Z,25.42
2023-03-26T08:20:32.060Z,18.40
2023-03-26T08:23:15.458Z,17.23
2023-03-26T08:25:59.251Z,18.42
2023-03-26T08:28:52.670Z,21.83
2023-03-26T08:31:28.760Z,23.25
2023-03-26T08:33:55.550Z,25.02
2023-03-26T08:36:22.006Z,22.67
2023-03-26T08:38:48.531Z,25.98
2023-03-26T08:41:33.008Z,20.52
2023-03-26T08:44:24.423Z,23.35
2023-03-26T08:47:28.180Z,22.52
2023-03-26T08:50:13.589Z,23.73
2023-03-26T08:53:01.759Z,14.68
2023-03-26T08:55:41.334Z,19.85
2023-03-26T08:58:25.953Z,17.17
2023-03-26T09:01:30.152Z,16.55
2023-03-26T09:04:15.472Z,17.98
2023-03-26T09:07:00.392Z,18.38
2023-03-26T09:10:07.170Z,18.02
2023-03-26T09:13:01.227Z,14.73
2023-03-26T09:15:52.069Z,18.42
2023-03-26T09:18:53.600Z,16.65
2023-03-26T09:21:49.797Z,14.63
2023-03-26T09:24:37.489Z,15.65
2023-03-26T09:27:25.642Z,14.80
2023-03-26T09:30:16.751Z,15.07
2023-03-26T09:33:16.887Z,15.30
2023-03-26T09:36:04.494Z,14.32
2023-03-26T09:38:43.291Z,20.20
2023-03-26T09:41:35.387Z,6.65
2023-03-26T09:44:36.009Z,15.73
2023-03-26T09:47:32.357Z,9.90
2023-03-26T09:50:34.185Z,10.60
2023-03-26T09:53:09.564Z,9.68
2023-03-26T09:55:57.563Z,9.32
2023-03-26T09:58:41.776Z,10.05
2023-03-26T10:01:25.032Z,10.35
2023-03-26T10:04:23.720Z,12.57
2023-03-26T10:06:58.503Z,9.73
2023-03-26T10:09:43.088Z,12.32
2023-03-26T10:12:13.710Z,12.82
2023-03-26T10:15:02.946Z,11.38
2023-03-26T10:18:27.756Z,10.15
2023-03-26T10:21:06.125Z,8.75
2023-03-26T10:23:41.448Z,10.80
2023-03-26T10:26:33.422Z,11.13
2023-03-26T10:29:00.030Z,9.25
2023-03-26T10:31:39.292Z,9.50
2023-03-26T10:35:00.258Z,12.65
2023-03-26T10:37:50.653Z,10.40
2023-03-26T10:40:42.864Z,11.13
2023-03-26T10:43:31.029Z,14.40
2023-03-26T10:46:39.249Z,10.43
2023-03-26T10:49:37.963Z,15.82
2023-03-26T10:52:20.892Z,8.95
2023-03-26T10:55:35.225Z,9.63
2023-03-26T10:58:22.993Z,8.90
2023-03-26T11:01:03.462Z,10.75
2023-03-26T11:03:43.748Z,13.05
2023-03-26T11:06:32.040Z,10.15
2023-03-26T11:09:23.642Z,11.95
2023-03-26T11:12:26.352Z,12.95
2023-03-26T11:15:01.248Z,9.07
2023-03-26T11:17:40.841Z,11.05
2023-03-26T11:20:27.386Z,15.05
2023-03-26T11:23:07.970Z,13.88
2023-03-26T11:25:58.366Z,10.38
2023-03-26T11:29:04.422Z,9.70
2023-03-26T11:31:57.638Z,11.77
2023-03-26T11:34:50.672Z,7.65
2023-03-26T11:37:26.027Z,7.28
2023-03-26T11:39:56.820Z,7.63
2023-03-26T11:42:24.764Z,11.60
2023-03-26T11:45:05.648Z,10.38
2023-03-26T11:47:39.020Z,8.18
2023-03-26T11:50:10.657Z,10.50
2023-03-26T11:52:37.336Z,10.07
2023-03-26T11:55:03.967Z,16.08
2023-03-26T11:57:35.133Z,12.45
2023-03-26T12:00:16.198Z,11.57
2023-03-26T12:02:44.502Z,10.00
2023-03-26T12:05:13.799Z,9.23
2023-03-26T12:07:55.761Z,14.07
2023-03-26T12:10:33.243Z,12.80
2023-03-26T12:13:02.921Z,7.50
2023-03-26T12:15:31.978Z,8.98
2023-03-26T12:17:59.487Z,6.05
2023-03-26T12:20:26.108Z,5.60
2023-03-26T12:23:00.558Z,6.13
2023-03-26T12:25:32.375Z,6.18
2023-03-26T12:28:13.958Z,2.30
2023-03-26T12:30:44.884Z,7.15
2023-03-26T12:33:22.090Z,3.28
2023-03-26T12:35:49.312Z,5.63
2023-03-26T12:38:32.963Z,2.33
2023-03-26T12:44:49.409Z,3.40
2023-03-26T12:44:51.172Z,8.57
2023-03-26T12:47:54.325Z,6.22
2023-03-26T12:49:33.745Z,6.63
2023-03-26T12:52:19.659Z,6.25
2023-03-26T12:55:03.124Z,4.25
2023-03-26T12:58:13.746Z,1.67
2023-03-26T13:01:11.213Z,0.88
2023-03-26T13:03:56.496Z,2.40
2023-03-26T13:06:33.595Z,3.90
2023-03-26T13:09:50.006Z,3.17
2023-03-26T13:12:46.232Z,2.38
2023-03-26T13:15:36.905Z,2.20
2023-03-26T13:18:18.689Z,6.68
2023-03-26T13:20:49.268Z,3.30
2023-03-26T13:23:46.615Z,5.43
2023-03-26T13:26:26.655Z,6.72
2023-03-26T13:29:01.994Z,5.65
2023-03-26T13:31:35.241Z,8.90
2023-03-26T13:34:27.587Z,7.78
2023-03-26T13:37:12.821Z,3.13
2023-03-26T13:40:04.998Z,7.40
2023-03-26T13:42:59.104Z,4.97
2023-03-26T13:45:56.338Z,6.70
2023-03-26T13:48:28.285Z,7.07
2023-03-26T13:51:23.370Z,4.95
2023-03-26T13:53:58.404Z,6.55
2023-03-26T13:56:38.438Z,9.10
2023-03-26T13:59:33.688Z,7.72
2023-03-26T14:02:11.587Z,6.60
2023-03-26T14:04:47.426Z,7.45
2023-03-26T14:07:25.265Z,10.55
2023-03-26T14:10:27.049Z,6.72
2023-03-26T14:13:07.234Z,9.95
2023-03-26T14:15:46.273Z,9.63
2023-03-26T14:18:33.415Z,11.57
2023-03-26T14:21:14.100Z,7.55
2023-03-26T14:24:04.987Z,10.90
2023-03-26T14:26:40.678Z,9.68
2023-03-26T14:58:39.989Z,20.17
2023-03-26T15:00:46.447Z,19.55
2023-03-26T15:01:21.197Z,18.23
2023-03-26T15:02:35.840Z,21.03
2023-03-26T15:05:35.080Z,172.68
